Time;durP1;ratioP1;P1;durP2;ratioP2;P2;SDS_P1;SDS_P2;PMS_P1;PMS_P2;Temp;Humidity;BMP_temperature;BMP_pressure;BME280_temperature;BME280_humidity;BME280_pressure;Samples;Min_cycle;Max_cycle;Signal;HPM_P1;HPM_P2
2023/03/04 00:02:20;;;;;;;12.52;1.90;;;6.30;99.90;;;;;;5049884;28;20060;-65
2023/03/04 00:04:45;;;;;;;9.65;3.25;;;6.30;99.90;;;;;;5049845;28;20466;-65
2023/03/04 00:07:15;;;;;;;12.45;1.90;;;6.30;99.90;;;;;;5049399;28;20036;-65
2023/03/04 00:09:45;;;;;;;14.93;2.70;;;6.30;99.90;;;;;;5049837;28;20505;-65
2023/03/04 00:12:11;;;;;;;7.15;2.28;;;6.30;99.90;;;;;;5049813;28;20053;-65
2023/03/04 00:14:36;;;;;;;12.38;1.83;;;6.40;99.90;;;;;;5048247;28;20043;-66
2023/03/04 00:17:03;;;;;;;8.52;2.17;;;6.40;99.90;;;;;;5047972;28;20457;-65
2023/03/04 00:19:29;;;;;;;17.55;2.75;;;6.30;99.90;;;;;;5043623;28;20494;-65
2023/03/04 00:21:55;;;;;;;16.25;2.88;;;6.40;99.90;;;;;;5046950;28;20041;-65
2023/03/04 00:24:21;;;;;;;6.88;1.95;;;6.30;99.90;;;;;;5048092;28;20091;-65
2023/03/04 00:26:47;;;;;;;9.93;2.55;;;6.30;99.90;;;;;;5049483;28;20033;-65
2023/03/04 00:29:12;;;;;;;7.15;2.40;;;6.40;99.90;;;;;;5049579;28;20896;-65
2023/03/04 00:31:38;;;;;;;10.15;1.73;;;6.40;99.90;;;;;;5048709;28;20097;-65
2023/03/04 00:34:03;;;;;;;11.15;2.72;;;6.40;99.90;;;;;;5049166;28;20274;-65
2023/03/04 00:36:29;;;;;;;10.65;2.25;;;6.30;99.90;;;;;;5047694;28;20045;-65
2023/03/04 00:38:54;;;;;;;13.40;2.47;;;6.40;99.90;;;;;;5049557;28;20673;-65
2023/03/04 00:41:20;;;;;;;10.15;2.75;;;6.40;99.90;;;;;;5049344;28;20183;-65
2023/03/04 00:43:46;;;;;;;10.98;2.00;;;6.40;99.90;;;;;;5049000;28;20041;-65
2023/03/04 00:46:11;;;;;;;11.07;1.90;;;6.30;99.90;;;;;;5049082;28;20043;-65
2023/03/04 00:48:37;;;;;;;9.50;3.53;;;6.30;99.90;;;;;;5049417;28;20068;-65
2023/03/04 00:51:03;;;;;;;8.75;1.77;;;6.30;99.90;;;;;;5048715;28;20037;-65
2023/03/04 00:53:29;;;;;;;13.57;2.47;;;6.30;99.90;;;;;;5048237;28;20436;-65
2023/03/04 00:55:55;;;;;;;7.80;1.80;;;6.40;99.90;;;;;;5046778;28;20090;-65
2023/03/04 00:58:20;;;;;;;13.68;2.05;;;6.30;99.90;;;;;;5049129;28;20033;-65
2023/03/04 01:00:46;;;;;;;13.65;2.35;;;6.30;99.90;;;;;;5049194;28;20032;-65
2023/03/04 01:03:11;;;;;;;10.98;1.90;;;6.30;99.90;;;;;;5049044;28;20494;-65
2023/03/04 01:05:37;;;;;;;9.10;2.55;;;6.30;99.90;;;;;;5048750;28;20037;-65
2023/03/04 01:08:04;;;;;;;8.15;2.80;;;6.30;99.90;;;;;;5048244;28;20041;-65
2023/03/04 01:10:29;;;;;;;7.63;2.35;;;6.30;99.90;;;;;;5049349;28;20048;-65
2023/03/04 01:12:55;;;;;;;9.98;2.75;;;6.30;99.90;;;;;;5048977;28;20493;-65
2023/03/04 01:15:20;;;;;;;8.30;2.88;;;6.30;99.90;;;;;;5047366;28;20041;-65
2023/03/04 01:17:46;;;;;;;6.30;1.88;;;6.30;99.90;;;;;;5049192;28;20036;-65
2023/03/04 01:20:12;;;;;;;11.82;2.25;;;6.30;99.90;;;;;;5050804;28;20088;-65
2023/03/04 01:22:37;;;;;;;13.63;1.95;;;6.30;99.90;;;;;;5051492;28;20037;-65
2023/03/04 01:25:04;;;;;;;13.70;2.47;;;6.30;99.90;;;;;;5051269;28;20071;-65
2023/03/04 01:27:29;;;;;;;10.80;3.67;;;6.30;99.90;;;;;;5052579;28;20044;-65
2023/03/04 01:29:55;;;;;;;11.80;2.08;;;6.30;99.90;;;;;;5052253;28;20036;-65
2023/03/04 01:32:21;;;;;;;11.82;3.00;;;6.30;99.90;;;;;;5052313;28;20049;-64
2023/03/04 01:34:46;;;;;;;11.55;2.50;;;6.30;99.90;;;;;;5051896;28;20481;-65
2023/03/04 01:37:14;;;;;;;13.43;2.38;;;6.30;99.90;;;;;;5052084;28;20633;-65
2023/03/04 01:39:40;;;;;;;8.85;2.00;;;6.30;99.90;;;;;;5052963;28;20041;-65
2023/03/04 01:42:17;;;;;;;12.07;2.17;;;6.30;99.90;;;;;;5052799;28;20149;-65
2023/03/04 01:44:43;;;;;;;11.07;2.85;;;6.30;99.90;;;;;;5052547;28;20033;-65
2023/03/04 01:47:09;;;;;;;17.88;2.10;;;6.30;99.90;;;;;;5052150;28;20413;-65
2023/03/04 01:49:35;;;;;;;13.07;2.28;;;6.20;99.90;;;;;;5052854;28;20620;-65
2023/03/04 01:52:01;;;;;;;9.88;2.30;;;6.30;99.90;;;;;;5052770;28;20044;-65
2023/03/04 01:54:26;;;;;;;13.10;2.17;;;6.30;99.90;;;;;;5052575;28;20163;-65
2023/03/04 01:56:53;;;;;;;8.95;2.10;;;6.20;99.90;;;;;;5052419;28;20525;-65
2023/03/04 01:59:23;;;;;;;8.63;2.17;;;6.30;99.90;;;;;;5052762;28;20049;-65
2023/03/04 02:01:58;;;;;;;12.80;2.05;;;6.30;99.90;;;;;;5052167;28;20126;-65
2023/03/04 02:04:26;;;;;;;13.15;2.08;;;6.30;99.90;;;;;;5052148;28;20620;-65
2023/03/04 02:06:52;;;;;;;12.43;2.35;;;6.30;99.90;;;;;;5051595;28;20041;-65
2023/03/04 02:09:18;;;;;;;14.65;2.03;;;6.30;99.90;;;;;;5052446;28;20048;-65
2023/03/04 02:11:45;;;;;;;18.95;2.20;;;6.30;99.90;;;;;;5053542;28;20044;-65
2023/03/04 02:14:12;;;;;;;8.65;2.30;;;6.30;99.90;;;;;;5049706;28;20040;-65
2023/03/04 02:16:38;;;;;;;13.10;2.10;;;6.30;99.90;;;;;;5050270;28;20166;-65
2023/03/04 02:19:18;;;;;;;11.10;2.63;;;6.30;99.90;;;;;;5050223;28;20040;-65
2023/03/04 02:21:44;;;;;;;10.25;2.05;;;6.30;99.90;;;;;;5049844;28;20059;-65
2023/03/04 02:24:32;;;;;;;12.93;3.30;;;6.30;99.90;;;;;;5050551;28;20044;-65
2023/03/04 02:26:57;;;;;;;11.50;2.00;;;6.20;99.90;;;;;;5050723;28;20037;-65
2023/03/04 02:29:23;;;;;;;4.57;2.13;;;6.20;99.90;;;;;;5050795;28;20051;-65
2023/03/04 02:31:51;;;;;;;6.40;2.05;;;6.20;99.90;;;;;;5050241;28;20076;-65
2023/03/04 02:34:18;;;;;;;11.40;2.13;;;6.20;99.90;;;;;;5050337;28;20037;-65
2023/03/04 02:36:45;;;;;;;8.18;1.75;;;6.20;99.90;;;;;;5050408;28;20087;-65
2023/03/04 02:39:18;;;;;;;8.32;1.85;;;6.20;99.90;;;;;;5050531;28;20036;-65
2023/03/04 02:41:44;;;;;;;12.20;1.98;;;6.20;99.90;;;;;;5050483;28;20049;-65
2023/03/04 02:44:25;;;;;;;10.25;1.88;;;6.20;99.90;;;;;;5050322;28;20564;-65
2023/03/04 02:46:51;;;;;;;9.73;1.83;;;6.20;99.90;;;;;;5050415;28;20044;-65
2023/03/04 02:49:17;;;;;;;11.70;2.83;;;6.20;99.90;;;;;;5050224;28;20036;-65
2023/03/04 02:51:43;;;;;;;12.60;3.65;;;6.30;99.90;;;;;;5050345;28;20045;-65
2023/03/04 02:54:17;;;;;;;6.88;1.75;;;6.20;99.90;;;;;;5050260;28;20043;-65
2023/03/04 02:56:47;;;;;;;9.57;1.98;;;6.30;99.90;;;;;;5050126;28;20136;-65
2023/03/04 02:59:12;;;;;;;9.27;2.17;;;6.20;99.90;;;;;;5050426;28;20628;-65
2023/03/04 03:01:38;;;;;;;15.05;2.45;;;6.20;99.90;;;;;;5050272;28;20041;-65
2023/03/04 03:04:03;;;;;;;15.02;2.38;;;6.10;99.90;;;;;;5049797;28;20048;-65
2023/03/04 03:06:29;;;;;;;12.32;1.85;;;6.10;99.90;;;;;;5049229;28;20041;-65
2023/03/04 03:08:54;;;;;;;8.35;2.45;;;6.10;99.90;;;;;;5050036;28;20049;-65
2023/03/04 03:11:20;;;;;;;7.53;1.95;;;6.10;99.90;;;;;;5012641;28;1052376;-65
2023/03/04 03:13:46;;;;;;;6.00;1.85;;;6.10;99.90;;;;;;5050644;28;20052;-65
2023/03/04 03:16:11;;;;;;;13.10;2.65;;;6.10;99.90;;;;;;5051079;28;20432;-65
2023/03/04 03:18:37;;;;;;;10.57;2.53;;;6.10;99.90;;;;;;5050988;28;20037;-65
2023/03/04 03:21:03;;;;;;;12.20;2.78;;;6.10;99.90;;;;;;5051109;28;20047;-65
2023/03/04 03:23:28;;;;;;;9.20;1.98;;;6.10;99.90;;;;;;5049535;28;20666;-65
2023/03/04 03:25:54;;;;;;;10.60;1.60;;;6.10;99.90;;;;;;5050641;28;20572;-65
2023/03/04 03:28:19;;;;;;;9.48;2.65;;;6.10;99.90;;;;;;5051093;28;20045;-65
2023/03/04 03:30:45;;;;;;;10.80;2.33;;;6.10;99.90;;;;;;5051014;28;20060;-65
2023/03/04 03:33:10;;;;;;;8.88;1.48;;;6.10;99.90;;;;;;5050772;28;20087;-65
2023/03/04 03:35:36;;;;;;;12.57;2.75;;;6.10;99.90;;;;;;5050382;28;20037;-65
2023/03/04 03:38:02;;;;;;;7.85;1.92;;;6.10;99.90;;;;;;5050887;28;20048;-65
2023/03/04 03:40:27;;;;;;;7.15;1.73;;;6.10;99.90;;;;;;5050629;28;20494;-65
2023/03/04 03:42:53;;;;;;;8.50;2.03;;;6.10;99.90;;;;;;5049900;28;20127;-65
2023/03/04 03:45:18;;;;;;;10.98;2.80;;;6.20;99.90;;;;;;5050202;28;20043;-65
2023/03/04 03:47:44;;;;;;;11.30;2.83;;;6.20;99.90;;;;;;5049656;28;20044;-65
2023/03/04 03:50:10;;;;;;;12.43;2.20;;;6.10;99.90;;;;;;5050584;28;20588;-65
2023/03/04 03:52:36;;;;;;;8.48;2.53;;;6.20;99.90;;;;;;5050443;28;20098;-65
2023/03/04 03:55:01;;;;;;;10.65;1.60;;;6.20;99.90;;;;;;5050179;28;20068;-65
2023/03/04 03:57:28;;;;;;;9.85;2.10;;;6.20;99.90;;;;;;5048998;28;20061;-65
2023/03/04 03:59:54;;;;;;;11.38;1.95;;;6.20;99.90;;;;;;5050332;28;20289;-65
2023/03/04 04:02:20;;;;;;;10.18;2.00;;;6.20;99.90;;;;;;5050182;28;20041;-65
2023/03/04 04:04:47;;;;;;;10.75;2.05;;;6.20;99.90;;;;;;5049703;28;20095;-65
2023/03/04 04:07:12;;;;;;;7.15;2.15;;;6.10;99.90;;;;;;5049697;28;20494;-65
2023/03/04 04:09:38;;;;;;;6.93;1.70;;;6.20;99.90;;;;;;5050153;28;20037;-65
2023/03/04 04:12:05;;;;;;;8.85;2.72;;;6.20;99.90;;;;;;5053360;28;20470;-65
2023/03/04 04:14:31;;;;;;;11.43;1.83;;;6.20;99.90;;;;;;5069775;28;20404;-65
2023/03/04 04:16:57;;;;;;;13.43;4.55;;;6.20;99.90;;;;;;5069543;28;20040;-65
2023/03/04 04:19:22;;;;;;;15.57;2.53;;;6.20;99.90;;;;;;5067536;28;20519;-65
2023/03/04 04:21:48;;;;;;;6.95;2.00;;;6.20;99.90;;;;;;5068913;28;20044;-65
2023/03/04 04:24:14;;;;;;;10.10;1.80;;;6.20;99.90;;;;;;5069427;28;20619;-65
2023/03/04 04:26:40;;;;;;;7.97;1.83;;;6.20;99.90;;;;;;5069550;28;20059;-65
2023/03/04 04:29:08;;;;;;;9.82;2.05;;;6.20;99.90;;;;;;5069437;28;20044;-65
2023/03/04 04:31:34;;;;;;;8.45;1.92;;;6.10;99.90;;;;;;5069576;28;20500;-65
2023/03/04 04:33:59;;;;;;;11.38;2.70;;;6.20;99.90;;;;;;5069605;28;20116;-64
2023/03/04 04:36:25;;;;;;;8.50;2.08;;;6.20;99.90;;;;;;5069630;28;20123;-64
2023/03/04 04:38:51;;;;;;;7.60;2.25;;;6.10;99.90;;;;;;5069483;28;20527;-64
2023/03/04 04:41:23;;;;;;;10.82;2.10;;;6.20;99.90;;;;;;5069694;28;20032;-65
2023/03/04 04:43:49;;;;;;;15.63;2.45;;;6.10;99.90;;;;;;5069204;28;20165;-65
2023/03/04 04:46:16;;;;;;;7.60;2.75;;;6.10;99.90;;;;;;5068603;28;20143;-65
2023/03/04 04:48:41;;;;;;;16.83;2.53;;;6.10;99.90;;;;;;5068890;28;20644;-65
2023/03/04 04:51:07;;;;;;;12.38;2.25;;;6.10;99.90;;;;;;5069094;28;20082;-65
2023/03/04 04:53:33;;;;;;;6.97;2.60;;;6.10;99.90;;;;;;5069324;28;20044;-65
2023/03/04 04:55:59;;;;;;;13.00;2.67;;;6.20;99.90;;;;;;5069160;28;20054;-65
2023/03/04 04:58:24;;;;;;;5.82;1.90;;;6.20;99.90;;;;;;5069092;28;20044;-65
2023/03/04 05:00:50;;;;;;;8.32;1.80;;;6.10;99.90;;;;;;5068425;28;20044;-65
2023/03/04 05:03:16;;;;;;;6.88;1.70;;;6.10;99.90;;;;;;5069198;28;20067;-65
2023/03/04 05:05:41;;;;;;;13.65;2.88;;;6.10;99.90;;;;;;5068496;28;20492;-65
2023/03/04 05:08:07;;;;;;;7.15;2.47;;;6.10;99.90;;;;;;5068518;28;20032;-65
2023/03/04 05:10:33;;;;;;;10.15;1.83;;;6.10;99.90;;;;;;5069247;28;20120;-65
2023/03/04 05:12:58;;;;;;;6.80;2.00;;;6.10;99.90;;;;;;5068903;28;20044;-65
2023/03/04 05:15:24;;;;;;;16.02;2.72;;;6.10;99.90;;;;;;5068812;28;20041;-65
2023/03/04 05:17:49;;;;;;;9.48;1.77;;;6.10;99.90;;;;;;5069300;28;20040;-65
2023/03/04 05:20:15;;;;;;;9.07;2.38;;;6.00;99.90;;;;;;5069015;28;20049;-65
2023/03/04 05:22:41;;;;;;;10.32;2.65;;;6.10;99.90;;;;;;5069251;28;20048;-65
2023/03/04 05:25:06;;;;;;;7.80;1.70;;;6.10;99.90;;;;;;5068611;28;20051;-65
2023/03/04 05:27:32;;;;;;;10.18;2.30;;;6.10;99.90;;;;;;5068722;28;20044;-65
2023/03/04 05:30:01;;;;;;;11.32;2.13;;;6.10;99.90;;;;;;5068831;28;20036;-65
2023/03/04 05:32:27;;;;;;;8.55;2.88;;;6.10;99.90;;;;;;5069259;28;20511;-65
2023/03/04 05:34:52;;;;;;;9.63;2.35;;;6.10;99.90;;;;;;5068768;28;20037;-65
2023/03/04 05:37:18;;;;;;;11.70;2.30;;;6.10;99.90;;;;;;5068953;28;20048;-65
2023/03/04 05:39:44;;;;;;;9.80;2.72;;;6.10;99.90;;;;;;5068525;28;20043;-65
2023/03/04 05:42:09;;;;;;;9.02;2.00;;;6.10;99.90;;;;;;5068548;28;20056;-65
2023/03/04 05:44:35;;;;;;;11.00;2.38;;;6.10;99.90;;;;;;5068706;28;20043;-65
2023/03/04 05:47:00;;;;;;;12.38;2.47;;;6.10;99.90;;;;;;5068910;28;20548;-65
2023/03/04 05:49:26;;;;;;;15.77;2.63;;;6.10;99.90;;;;;;5068982;28;20044;-65
2023/03/04 05:51:52;;;;;;;14.18;2.80;;;6.00;99.90;;;;;;5068888;28;20036;-65
2023/03/04 05:54:17;;;;;;;12.77;1.90;;;6.00;99.90;;;;;;5068593;28;20094;-65
2023/03/04 05:56:44;;;;;;;5.32;2.15;;;6.00;99.90;;;;;;5068463;28;20052;-65
2023/03/04 05:59:10;;;;;;;10.82;2.20;;;6.00;99.90;;;;;;5068847;28;20040;-65
2023/03/04 06:01:35;;;;;;;8.13;2.08;;;6.00;99.90;;;;;;5055047;28;20094;-65
2023/03/04 06:04:01;;;;;;;11.55;2.55;;;6.00;99.90;;;;;;5047496;28;20032;-65
2023/03/04 06:06:26;;;;;;;13.57;2.10;;;6.00;99.90;;;;;;5050386;28;20087;-65
2023/03/04 06:08:52;;;;;;;13.25;2.72;;;6.10;99.90;;;;;;5031534;28;20041;-65
2023/03/04 06:11:17;;;;;;;7.85;1.88;;;6.00;99.90;;;;;;5032308;28;20046;-65
2023/03/04 06:13:43;;;;;;;10.10;1.63;;;6.00;99.90;;;;;;5030946;28;20039;-65
2023/03/04 06:16:09;;;;;;;7.47;2.00;;;6.00;99.90;;;;;;5030705;28;20068;-65
2023/03/04 06:18:35;;;;;;;6.95;2.22;;;6.00;99.90;;;;;;5029734;28;20053;-64
2023/03/04 06:21:02;;;;;;;6.10;1.70;;;6.00;99.90;;;;;;5069557;28;20047;-65
2023/03/04 06:23:29;;;;;;;4.80;1.83;;;6.00;99.90;;;;;;5070592;28;20635;-65
2023/03/04 06:25:57;;;;;;;5.97;1.75;;;6.00;99.90;;;;;;5070215;28;20455;-65
2023/03/04 06:28:23;;;;;;;3.03;1.73;;;6.00;99.90;;;;;;5071209;28;20076;-65
2023/03/04 06:30:51;;;;;;;6.50;1.80;;;6.00;99.90;;;;;;5071319;28;20068;-65
2023/03/04 06:33:18;;;;;;;10.35;1.65;;;6.00;99.90;;;;;;5072052;28;20045;-65
2023/03/04 06:35:43;;;;;;;5.75;2.10;;;6.00;99.90;;;;;;5071350;28;20047;-65
2023/03/04 06:38:09;;;;;;;7.43;2.17;;;6.00;99.90;;;;;;5070600;28;20041;-65
2023/03/04 06:40:34;;;;;;;4.53;1.73;;;6.00;99.90;;;;;;5070237;28;20048;-65
2023/03/04 06:43:00;;;;;;;8.10;2.13;;;6.00;99.90;;;;;;5070533;28;20382;-65
2023/03/04 06:45:26;;;;;;;3.42;1.70;;;5.90;99.90;;;;;;5071482;28;20040;-65
2023/03/04 06:47:51;;;;;;;7.13;2.65;;;6.00;99.90;;;;;;5071792;28;20040;-65
2023/03/04 06:50:17;;;;;;;7.03;1.50;;;5.90;99.90;;;;;;5071780;28;20036;-65
2023/03/04 06:52:42;;;;;;;8.20;1.70;;;5.90;99.90;;;;;;5071336;28;20052;-65
2023/03/04 06:55:08;;;;;;;4.22;1.60;;;5.90;99.90;;;;;;5071154;28;20412;-65
2023/03/04 06:57:34;;;;;;;4.72;2.38;;;6.00;99.90;;;;;;5070839;28;20047;-65
2023/03/04 07:00:02;;;;;;;8.35;1.88;;;6.00;99.90;;;;;;5071500;28;20040;-65
2023/03/04 07:02:27;;;;;;;5.20;1.60;;;6.00;99.90;;;;;;5069832;28;20396;-65
2023/03/04 07:04:53;;;;;;;8.55;1.95;;;6.00;99.90;;;;;;5071028;28;20127;-65
2023/03/04 07:07:18;;;;;;;6.75;2.10;;;6.00;99.90;;;;;;5071254;28;20040;-65
2023/03/04 07:09:44;;;;;;;11.30;2.58;;;6.10;99.90;;;;;;5071220;28;20044;-65
2023/03/04 07:12:10;;;;;;;9.02;1.65;;;6.10;99.90;;;;;;5070746;28;20044;-65
2023/03/04 07:14:35;;;;;;;4.97;2.35;;;6.10;99.90;;;;;;5070871;28;20041;-65
2023/03/04 07:17:01;;;;;;;5.97;1.65;;;6.10;99.90;;;;;;5068783;28;20032;-65
2023/03/04 07:19:27;;;;;;;3.05;1.50;;;6.10;99.90;;;;;;5070932;28;20070;-65
2023/03/04 07:21:52;;;;;;;4.45;1.60;;;6.10;99.90;;;;;;5070419;28;20036;-67
2023/03/04 07:24:18;;;;;;;4.40;2.08;;;6.10;99.90;;;;;;5070523;28;20098;-66
2023/03/04 07:26:43;;;;;;;4.07;1.75;;;6.10;99.90;;;;;;5070782;28;20045;-65
2023/03/04 07:29:09;;;;;;;3.20;2.42;;;6.10;99.90;;;;;;5070856;28;20037;-65
2023/03/04 07:31:35;;;;;;;6.50;1.73;;;6.20;99.90;;;;;;5070852;28;20040;-66
2023/03/04 07:34:04;;;;;;;8.13;2.00;;;6.10;99.90;;;;;;5070371;28;20094;-65
2023/03/04 07:36:30;;;;;;;8.43;1.88;;;6.10;99.90;;;;;;5070680;28;20083;-65
2023/03/04 07:38:56;;;;;;;8.38;1.83;;;6.20;99.90;;;;;;5070552;28;20123;-65
2023/03/04 07:41:23;;;;;;;3.05;1.50;;;6.20;99.90;;;;;;5070017;28;20120;-65
2023/03/04 07:43:49;;;;;;;3.45;1.50;;;6.20;99.90;;;;;;5070297;28;20106;-65
2023/03/04 07:46:15;;;;;;;5.70;1.58;;;6.20;99.90;;;;;;5069873;28;20036;-65
2023/03/04 07:48:41;;;;;;;2.60;1.40;;;6.30;99.90;;;;;;5070287;28;20513;-65
2023/03/04 07:51:11;;;;;;;3.63;1.63;;;6.30;99.90;;;;;;5070323;28;20568;-65
2023/03/04 07:53:38;;;;;;;7.68;1.50;;;6.30;99.90;;;;;;5070190;28;20047;-65
2023/03/04 07:56:06;;;;;;;4.13;1.90;;;6.40;99.90;;;;;;5068406;28;20741;-65
2023/03/04 07:58:32;;;;;;;5.57;1.45;;;6.40;99.90;;;;;;5070313;28;20405;-65
2023/03/04 08:00:58;;;;;;;4.63;1.85;;;6.40;99.90;;;;;;5069997;28;20037;-65
2023/03/04 08:03:24;;;;;;;2.75;1.52;;;6.50;99.90;;;;;;5070057;28;20060;-65
2023/03/04 08:05:50;;;;;;;3.58;1.30;;;6.40;99.90;;;;;;5069599;28;20029;-65
2023/03/04 08:08:16;;;;;;;4.68;1.70;;;6.50;99.90;;;;;;5069192;28;20071;-65
2023/03/04 08:10:42;;;;;;;4.45;1.92;;;6.50;99.90;;;;;;5070127;28;20059;-65
2023/03/04 08:13:08;;;;;;;5.60;1.83;;;6.60;99.90;;;;;;5069654;28;20544;-65
2023/03/04 08:15:34;;;;;;;7.60;1.73;;;6.60;99.90;;;;;;5069392;28;20559;-65
2023/03/04 08:18:00;;;;;;;3.08;1.58;;;6.60;99.90;;;;;;5069699;28;20036;-65
2023/03/04 08:20:27;;;;;;;5.13;2.55;;;6.60;99.90;;;;;;5068826;28;20115;-65
2023/03/04 08:22:52;;;;;;;8.68;1.67;;;6.70;99.90;;;;;;5069451;28;20079;-65
2023/03/04 08:25:18;;;;;;;2.72;1.25;;;6.70;99.90;;;;;;5069316;28;20140;-65
2023/03/04 08:27:44;;;;;;;5.60;1.30;;;6.70;99.90;;;;;;5068777;28;20048;-65
2023/03/04 08:30:10;;;;;;;4.97;1.40;;;6.70;99.90;;;;;;5069752;28;20509;-65
2023/03/04 08:32:35;;;;;;;7.68;1.92;;;6.60;99.90;;;;;;5069740;28;20086;-65
2023/03/04 08:35:01;;;;;;;5.10;1.20;;;6.70;99.90;;;;;;5069391;28;20070;-65
2023/03/04 08:37:28;;;;;;;2.30;1.42;;;6.70;99.90;;;;;;5069123;28;20439;-65
2023/03/04 08:39:54;;;;;;;2.47;1.52;;;6.60;99.90;;;;;;5069294;28;20169;-65
2023/03/04 08:42:19;;;;;;;4.55;1.60;;;6.60;99.90;;;;;;5067784;28;20157;-65
2023/03/04 08:44:45;;;;;;;6.32;1.70;;;6.70;99.90;;;;;;5068224;28;20044;-65
2023/03/04 08:47:11;;;;;;;8.07;1.65;;;6.70;99.90;;;;;;5068962;28;20028;-65
2023/03/04 08:49:37;;;;;;;4.30;1.60;;;6.70;99.90;;;;;;5069472;28;20072;-65
2023/03/04 08:52:03;;;;;;;8.00;1.67;;;6.70;99.90;;;;;;5068999;28;20499;-65
2023/03/04 08:54:28;;;;;;;6.45;1.58;;;6.70;99.90;;;;;;5069036;28;20055;-65
2023/03/04 08:56:54;;;;;;;4.57;1.85;;;6.80;99.90;;;;;;5069223;28;20048;-65
2023/03/04 08:59:20;;;;;;;5.90;1.77;;;6.80;99.90;;;;;;5069453;28;20155;-65
2023/03/04 09:01:45;;;;;;;9.50;1.60;;;6.90;99.90;;;;;;5069174;28;20646;-65
2023/03/04 09:04:11;;;;;;;10.57;2.17;;;6.90;99.90;;;;;;5068830;28;20041;-65
2023/03/04 09:06:37;;;;;;;7.05;2.00;;;7.00;99.90;;;;;;5068094;28;20036;-65
2023/03/04 09:09:03;;;;;;;7.22;1.70;;;7.00;99.90;;;;;;5056120;28;20125;-65
2023/03/04 09:11:29;;;;;;;12.45;2.35;;;7.00;99.90;;;;;;5029167;28;20042;-65
2023/03/04 09:13:55;;;;;;;12.70;2.47;;;7.00;99.90;;;;;;5032107;28;20472;-65
2023/03/04 09:16:20;;;;;;;10.82;2.17;;;7.00;99.90;;;;;;5039215;28;20065;-64
2023/03/04 09:18:46;;;;;;;4.38;1.65;;;7.00;99.90;;;;;;5047317;28;20032;-65
2023/03/04 09:21:12;;;;;;;10.10;2.05;;;7.00;99.90;;;;;;5047562;28;20037;-65
2023/03/04 09:23:38;;;;;;;11.60;2.17;;;6.90;99.90;;;;;;5048675;28;20095;-65
2023/03/04 09:26:14;;;;;;;12.77;1.88;;;6.90;99.90;;;;;;5048668;28;20536;-65
2023/03/04 09:28:39;;;;;;;12.50;2.20;;;6.90;99.90;;;;;;5048989;28;20660;-65
2023/03/04 09:31:13;;;;;;;9.05;1.90;;;6.90;99.90;;;;;;5048759;28;20112;-65
2023/03/04 09:33:41;;;;;;;10.32;3.08;;;7.00;99.90;;;;;;5048982;28;20111;-65
2023/03/04 09:36:09;;;;;;;14.68;3.10;;;7.00;99.90;;;;;;5048922;28;20040;-65
2023/03/04 09:38:37;;;;;;;11.10;2.13;;;7.00;99.90;;;;;;5048027;28;20073;-65
2023/03/04 09:41:07;;;;;;;6.28;2.20;;;7.10;99.90;;;;;;5050852;28;20047;-65
2023/03/04 09:43:33;;;;;;;9.15;2.22;;;7.10;99.90;;;;;;5051787;28;20128;-65
2023/03/04 09:46:03;;;;;;;16.00;2.28;;;7.20;99.90;;;;;;5052114;28;20091;-65
2023/03/04 09:48:38;;;;;;;10.05;2.33;;;7.20;99.90;;;;;;5052087;28;20110;-65
2023/03/04 09:51:19;;;;;;;11.13;2.22;;;7.20;99.90;;;;;;5051214;28;20053;-65
2023/03/04 09:53:56;;;;;;;11.50;2.30;;;7.20;99.90;;;;;;5052640;28;20049;-65
2023/03/04 09:56:22;;;;;;;8.73;2.20;;;7.30;99.90;;;;;;5051775;28;20476;-65
2023/03/04 09:58:50;;;;;;;11.05;2.80;;;7.20;99.90;;;;;;5052299;28;20128;-66
2023/03/04 10:01:25;;;;;;;10.45;2.33;;;7.10;99.90;;;;;;5052295;28;20060;-66
2023/03/04 10:03:59;;;;;;;14.45;2.60;;;7.10;99.90;;;;;;5052300;28;20076;-66
2023/03/04 10:06:25;;;;;;;13.23;2.70;;;7.20;99.90;;;;;;5051682;28;20065;-66
2023/03/04 10:09:04;;;;;;;12.75;2.42;;;7.20;99.90;;;;;;5052242;28;20068;-65
2023/03/04 10:12:02;;;;;;;12.45;2.28;;;7.10;99.90;;;;;;5050980;28;20056;-65
2023/03/04 10:14:50;;;;;;;12.98;2.22;;;7.20;99.90;;;;;;5036676;28;20120;-65
2023/03/04 10:17:23;;;;;;;15.13;2.83;;;7.20;99.90;;;;;;5040514;28;20040;-66
2023/03/04 10:20:26;;;;;;;13.10;2.45;;;7.10;99.90;;;;;;5045159;28;20045;-66
2023/03/04 10:22:58;;;;;;;6.20;2.03;;;7.20;99.90;;;;;;5043471;28;20041;-66
2023/03/04 10:25:32;;;;;;;12.45;2.50;;;7.20;99.90;;;;;;5040758;28;20103;-66
2023/03/04 10:28:08;;;;;;;12.70;2.42;;;7.30;99.90;;;;;;5045267;28;20039;-66
2023/03/04 10:30:56;;;;;;;9.65;2.70;;;7.30;99.90;;;;;;5041849;28;20040;-66
2023/03/04 10:33:26;;;;;;;18.83;3.40;;;7.30;99.90;;;;;;5042377;28;20582;-66
2023/03/04 10:36:26;;;;;;;11.73;3.17;;;7.30;99.90;;;;;;5058910;28;20055;-66
2023/03/04 10:39:00;;;;;;;9.77;2.22;;;7.40;99.90;;;;;;5026399;28;20402;-66
2023/03/04 10:41:28;;;;;;;11.68;2.45;;;7.30;99.90;;;;;;5044785;28;20123;-66
2023/03/04 10:44:10;;;;;;;10.50;2.47;;;7.40;99.90;;;;;;5049110;28;20095;-66
2023/03/04 10:46:44;;;;;;;8.88;2.33;;;7.40;99.90;;;;;;5050659;28;20041;-66
2023/03/04 10:49:13;;;;;;;12.23;2.47;;;7.40;99.90;;;;;;5051140;28;20393;-66
2023/03/04 10:51:45;;;;;;;10.93;2.55;;;7.40;99.90;;;;;;5050608;28;20052;-66
2023/03/04 10:54:47;;;;;;;13.35;2.63;;;7.30;99.90;;;;;;5050957;28;20041;-66
2023/03/04 10:57:17;;;;;;;5.03;1.70;;;7.20;99.90;;;;;;5050325;28;20116;-66
2023/03/04 10:59:45;;;;;;;7.70;2.03;;;7.20;99.90;;;;;;5050853;28;20432;-66
2023/03/04 11:02:19;;;;;;;5.22;2.08;;;7.30;99.90;;;;;;5051142;28;20406;-66
2023/03/04 11:05:16;;;;;;;12.30;2.08;;;7.30;99.90;;;;;;5050796;28;20120;-66
2023/03/04 11:07:53;;;;;;;11.02;1.83;;;7.40;99.90;;;;;;5042410;28;20084;-66
2023/03/04 11:10:25;;;;;;;12.98;1.75;;;7.50;99.90;;;;;;5050089;28;20040;-66
2023/03/04 11:13:01;;;;;;;10.52;2.20;;;7.50;99.90;;;;;;5050909;28;20045;-66
2023/03/04 11:15:30;;;;;;;5.97;1.40;;;7.60;99.90;;;;;;5052698;28;20436;-66
2023/03/04 11:18:04;;;;;;;7.63;1.85;;;7.60;99.90;;;;;;5049678;28;20040;-66
2023/03/04 11:20:33;;;;;;;6.78;1.50;;;7.60;99.90;;;;;;5049114;28;20041;-65
2023/03/04 11:23:09;;;;;;;5.60;1.70;;;7.60;99.90;;;;;;5049920;28;20048;-65
2023/03/04 11:25:41;;;;;;;6.30;1.80;;;7.70;99.90;;;;;;5049927;28;20037;-66
2023/03/04 11:28:44;;;;;;;5.45;1.70;;;7.50;99.90;;;;;;5043773;28;20049;-66
2023/03/04 11:31:26;;;;;;;8.98;1.67;;;7.50;99.90;;;;;;5039326;28;20041;-66
2023/03/04 11:34:03;;;;;;;6.78;1.98;;;7.40;99.90;;;;;;5039287;28;20414;-66
2023/03/04 11:36:34;;;;;;;12.38;2.78;;;7.40;99.90;;;;;;5039238;28;20041;-66
2023/03/04 11:39:02;;;;;;;10.32;1.98;;;7.40;99.90;;;;;;5039321;28;20504;-67
2023/03/04 11:41:38;;;;;;;6.53;1.63;;;7.50;99.90;;;;;;5040003;28;20045;-66
2023/03/04 11:44:07;;;;;;;15.70;2.28;;;7.50;99.90;;;;;;5040368;28;20477;-66
2023/03/04 11:46:50;;;;;;;13.70;3.67;;;7.50;99.90;;;;;;5043342;28;20481;-66
2023/03/04 11:49:33;;;;;;;12.05;2.33;;;7.50;99.90;;;;;;5038963;28;20072;-66
2023/03/04 11:52:12;;;;;;;12.80;2.45;;;7.60;99.90;;;;;;5039321;28;20041;-66
2023/03/04 11:55:06;;;;;;;13.57;3.60;;;7.50;99.90;;;;;;5039289;28;20084;-66
2023/03/04 11:57:46;;;;;;;19.30;2.80;;;7.50;99.90;;;;;;5040788;28;20037;-66
2023/03/04 12:00:49;;;;;;;11.43;2.22;;;7.40;99.90;;;;;;5039070;28;20033;-66
2023/03/04 12:03:26;;;;;;;15.73;3.15;;;7.40;99.90;;;;;;5042276;28;20042;-67
2023/03/04 12:06:00;;;;;;;11.02;2.30;;;7.40;99.90;;;;;;5029294;28;20406;-67
2023/03/04 12:08:46;;;;;;;8.70;2.00;;;7.50;99.90;;;;;;5029364;28;20458;-66
2023/03/04 12:11:39;;;;;;;16.23;2.50;;;7.50;99.90;;;;;;5030156;28;20113;-68
2023/03/04 12:14:35;;;;;;;17.20;2.20;;;7.50;99.90;;;;;;5029735;28;20034;-65
2023/03/04 12:17:27;;;;;;;10.68;3.10;;;7.60;99.90;;;;;;5030173;28;20049;-66
2023/03/04 12:20:14;;;;;;;10.45;1.88;;;7.70;99.90;;;;;;5031112;28;20033;-65
2023/03/04 12:22:44;;;;;;;12.10;2.05;;;7.70;99.90;;;;;;5029487;28;20144;-66
2023/03/04 12:25:24;;;;;;;11.90;2.00;;;7.90;99.90;;;;;;5032125;28;20488;-65
2023/03/04 12:28:27;;;;;;;11.23;2.60;;;7.90;99.90;;;;;;5035256;28;20091;-66
2023/03/04 12:31:05;;;;;;;12.93;1.98;;;7.70;99.90;;;;;;5040217;28;20036;-66
2023/03/04 12:34:08;;;;;;;15.80;2.42;;;7.70;99.90;;;;;;5048294;28;20068;-65
2023/03/04 12:36:46;;;;;;;;;;;7.70;99.90;;;;;;5046167;28;20116;-66
2023/03/04 12:39:24;;;;;;;5.65;2.03;;;8.00;99.90;;;;;;5037052;28;19917;-66
2023/03/04 12:42:24;;;;;;;10.95;2.42;;;7.90;99.90;;;;;;5027584;28;20049;-65
2023/03/04 12:45:31;;;;;;;11.10;2.17;;;8.00;99.90;;;;;;5027781;28;20033;-66
2023/03/04 12:48:23;;;;;;;10.65;2.08;;;8.10;99.90;;;;;;5027809;28;20045;-65
2023/03/04 12:50:58;;;;;;;11.95;2.47;;;8.00;99.90;;;;;;5028720;28;20129;-65
2023/03/04 12:53:34;;;;;;;11.23;2.08;;;8.10;99.90;;;;;;5027901;28;20057;-66
2023/03/04 12:56:03;;;;;;;11.55;3.33;;;8.20;99.90;;;;;;5035737;28;20047;-66
2023/03/04 12:58:31;;;;;;;9.48;2.20;;;8.20;99.90;;;;;;5034203;28;20582;-66
2023/03/04 13:01:25;;;;;;;10.82;2.55;;;8.10;99.90;;;;;;5047981;28;20037;-65
2023/03/04 13:04:21;;;;;;;11.95;3.13;;;8.00;99.90;;;;;;5047605;28;20044;-66
2023/03/04 13:07:09;;;;;;;13.63;2.10;;;7.90;99.90;;;;;;5045494;28;20059;-66